createdAt,value
2022-10-22T00:02:35.502Z,99844.16
2022-10-22T00:07:59.375Z,99849.28
2022-10-22T00:13:21.784Z,99846.47
2022-10-22T00:18:43.931Z,99835.59
2022-10-22T00:24:07.391Z,99852.72
2022-10-22T00:29:28.866Z,99860.28
2022-10-22T00:34:50.979Z,99842.66
2022-10-22T00:40:15.173Z,99857.31
2022-10-22T00:45:37.939Z,99884.78
2022-10-22T00:51:02.965Z,99874.09
2022-10-22T00:56:26.135Z,99866.69
2022-10-22T01:01:49.208Z,99863.88
2022-10-22T01:07:19.396Z,99865.00
2022-10-22T01:12:53.183Z,99861.38
2022-10-22T01:18:23.826Z,99861.38
2022-10-22T01:29:15.331Z,99860.69
2022-10-22T01:34:43.000Z,99853.47
2022-10-22T01:40:06.829Z,99853.13
2022-10-22T01:45:31.524Z,99854.75
2022-10-22T01:51:09.128Z,99865.75
2022-10-22T01:56:52.175Z,99866.59
2022-10-22T02:02:27.345Z,99844.88
2022-10-22T02:07:52.563Z,99846.38
2022-10-22T02:13:19.489Z,99849.84
2022-10-22T02:18:46.206Z,99843.09
2022-10-22T02:24:09.455Z,99831.91
2022-10-22T02:29:37.090Z,99828.41
2022-10-22T02:35:02.464Z,99827.78
2022-10-22T02:40:24.896Z,99813.47
2022-10-22T02:45:50.353Z,99818.09
2022-10-22T02:51:13.039Z,99815.78
2022-10-22T02:56:34.946Z,99823.06
2022-10-22T03:01:56.653Z,99825.69
2022-10-22T03:07:19.491Z,99840.50
2022-10-22T03:12:41.198Z,99836.22
2022-10-22T03:18:02.973Z,99842.50
2022-10-22T03:23:26.969Z,99840.19
2022-10-22T03:28:49.205Z,99856.00
2022-10-22T03:34:12.103Z,99868.34
2022-10-22T03:39:36.603Z,99857.31
2022-10-22T03:44:58.013Z,99862.75
2022-10-22T03:50:19.651Z,99865.56
2022-10-22T03:55:43.466Z,99878.91
2022-10-22T04:01:08.689Z,99881.19
2022-10-22T04:06:31.314Z,99873.09
2022-10-22T04:11:54.303Z,99866.88
2022-10-22T04:17:16.235Z,99870.31
2022-10-22T04:22:38.645Z,99885.31
2022-10-22T04:28:02.814Z,99882.69
2022-10-22T04:33:24.773Z,99890.91
2022-10-22T04:38:48.170Z,99894.53
2022-10-22T04:44:13.674Z,99905.25
2022-10-22T04:49:37.616Z,99891.25
2022-10-22T04:54:59.242Z,99885.97
2022-10-22T05:00:22.366Z,99886.63
2022-10-22T05:05:43.845Z,99880.72
2022-10-22T05:11:12.733Z,99883.19
2022-10-22T05:16:36.116Z,99886.63
2022-10-22T05:21:59.750Z,99896.16
2022-10-22T05:27:21.342Z,99893.88
2022-10-22T05:32:44.790Z,99903.59
2022-10-22T05:38:06.457Z,99904.25
2022-10-22T05:43:28.426Z,99923.34
2022-10-22T05:48:52.106Z,99923.66
2022-10-22T05:54:19.610Z,99924.31
2022-10-22T05:59:41.175Z,99924.31
2022-10-22T06:05:04.386Z,99931.22
2022-10-22T06:10:26.193Z,99957.41
2022-10-22T06:15:47.942Z,99969.25
2022-10-22T06:21:12.976Z,99974.19
2022-10-22T06:26:34.979Z,99980.94
2022-10-22T06:31:56.661Z,99976.34
2022-10-22T06:37:19.522Z,99981.28
2022-10-22T06:42:41.273Z,99992.31
2022-10-22T06:48:03.322Z,99999.72
2022-10-22T06:53:26.349Z,100005.66
2022-10-22T06:58:48.912Z,100010.59
2022-10-22T07:04:11.853Z,100018.31
2022-10-22T07:09:34.549Z,100021.09
2022-10-22T07:14:56.290Z,100035.59
2022-10-22T07:20:18.963Z,100037.03
2022-10-22T07:25:41.979Z,100050.34
2022-10-22T07:31:03.778Z,100063.03
2022-10-22T07:36:25.223Z,100058.88
2022-10-22T07:41:47.891Z,100070.56
2022-10-22T07:47:09.575Z,100074.00
2022-10-22T07:52:31.024Z,100080.25
2022-10-22T07:57:54.020Z,100075.25
2022-10-22T08:03:17.081Z,100076.22
2022-10-22T08:08:38.667Z,100079.53
2022-10-22T08:14:01.672Z,100077.88
2022-10-22T08:19:23.057Z,100082.97
2022-10-22T08:24:44.354Z,100090.88
2022-10-22T08:30:09.470Z,100094.38
2022-10-22T08:35:30.919Z,100093.72
2022-10-22T08:40:55.482Z,100097.00
2022-10-22T08:46:42.427Z,100115.78
2022-10-22T08:52:04.439Z,100117.78
2022-10-22T08:57:39.915Z,100126.72
2022-10-22T09:03:19.438Z,100126.19
2022-10-22T09:08:43.867Z,100125.66
2022-10-22T09:14:06.179Z,100142.84
2022-10-22T09:19:40.063Z,100141.13
2022-10-22T09:25:18.510Z,100134.41
2022-10-22T09:30:41.744Z,100142.63
2022-10-22T09:36:07.737Z,100138.53
2022-10-22T09:41:30.939Z,100134.66
2022-10-22T09:46:52.597Z,100136.09
2022-10-22T09:52:41.141Z,100137.63
2022-10-22T09:58:02.857Z,100138.78
2022-10-22T10:03:27.875Z,100142.28
2022-10-22T10:08:51.659Z,100153.53
2022-10-22T10:14:20.290Z,100146.72
2022-10-22T10:19:52.162Z,100144.81
2022-10-22T10:25:27.349Z,100152.47
2022-10-22T10:30:55.698Z,100148.56
2022-10-22T10:36:24.943Z,100153.75
2022-10-22T10:41:56.683Z,100145.50
2022-10-22T10:47:34.707Z,100140.53
2022-10-22T10:53:04.990Z,100147.59
2022-10-22T10:58:38.133Z,100149.56
2022-10-22T11:04:25.826Z,100163.81
2022-10-22T11:09:52.360Z,100164.16
2022-10-22T11:15:26.974Z,100171.41
2022-10-22T11:20:58.423Z,100165.56
2022-10-22T11:26:30.676Z,100159.09
2022-10-22T11:31:55.760Z,100155.91
2022-10-22T11:37:18.628Z,100170.88
2022-10-22T11:42:45.256Z,100162.53
2022-10-22T11:48:18.977Z,100165.22
2022-10-22T11:53:40.591Z,100165.84
2022-10-22T11:59:03.484Z,100171.34
2022-10-22T12:04:42.278Z,100174.25
2022-10-22T12:10:07.670Z,100174.84
2022-10-22T12:15:30.281Z,100170.66
2022-10-22T12:20:54.715Z,100180.28
2022-10-22T12:26:27.217Z,100188.88
2022-10-22T12:31:48.781Z,100191.69
2022-10-22T12:37:14.800Z,100188.69
2022-10-22T12:42:38.213Z,100183.38
2022-10-22T12:48:01.811Z,100179.09
2022-10-22T12:53:28.757Z,100180.72
2022-10-22T12:58:54.824Z,100184.56
2022-10-22T13:04:23.779Z,100179.09
2022-10-22T13:09:47.936Z,100182.94
2022-10-22T13:15:34.609Z,100178.03
2022-10-22T13:20:58.943Z,100178.59
2022-10-22T13:26:22.039Z,100180.06
2022-10-22T13:31:48.015Z,100181.00
2022-10-22T13:37:10.611Z,100185.88
2022-10-22T13:42:33.896Z,100185.59
2022-10-22T13:47:57.093Z,100189.03
2022-10-22T13:53:21.985Z,100184.91
2022-10-22T13:58:46.501Z,100183.22
2022-10-22T14:04:12.029Z,100189.69
2022-10-22T14:09:33.671Z,100178.72
2022-10-22T14:20:22.381Z,100189.19
2022-10-22T14:25:44.168Z,100189.56
2022-10-22T14:31:07.463Z,100197.91
2022-10-22T14:36:29.660Z,100189.28
2022-10-22T14:41:51.307Z,100196.00
2022-10-22T14:47:16.628Z,100213.13
2022-10-22T14:52:39.084Z,100211.66
2022-10-22T14:58:03.782Z,100217.53
2022-10-22T15:03:49.010Z,100227.25
2022-10-22T15:09:22.474Z,100232.63
2022-10-22T15:20:59.017Z,100241.69
2022-10-22T15:26:22.798Z,100241.50
2022-10-22T15:32:07.355Z,100244.59
2022-10-22T15:37:41.258Z,100246.25
2022-10-22T15:43:10.212Z,100259.28
2022-10-22T15:48:35.724Z,100268.47
2022-10-22T15:54:11.092Z,100270.75
2022-10-22T15:59:35.817Z,100275.59
2022-10-22T16:05:32.193Z,100276.16
2022-10-22T16:11:01.264Z,100278.25
2022-10-22T16:16:38.958Z,100273.34
2022-10-22T16:22:13.282Z,100275.56
2022-10-22T16:27:58.934Z,100287.38
2022-10-22T16:33:39.134Z,100303.97
2022-10-22T16:39:21.481Z,100307.66
2022-10-22T16:45:07.072Z,100313.81
2022-10-22T16:50:33.406Z,100312.53
2022-10-22T16:56:00.899Z,100328.38
2022-10-22T17:01:30.784Z,100330.38
2022-10-22T17:06:57.273Z,100325.75
2022-10-22T17:12:27.430Z,100334.19
2022-10-22T17:17:58.059Z,100334.69
2022-10-22T17:23:26.304Z,100351.19
2022-10-22T17:28:53.327Z,100361.09
2022-10-22T17:34:32.681Z,100362.09
2022-10-22T17:39:59.173Z,100363.72
2022-10-22T17:45:22.566Z,100370.66
2022-10-22T17:50:50.572Z,100374.47
2022-10-22T17:56:20.758Z,100379.09
2022-10-22T18:01:50.491Z,100382.72
2022-10-22T18:07:24.118Z,100386.03
2022-10-22T18:12:48.183Z,100383.53
2022-10-22T18:18:20.612Z,100394.59
2022-10-22T18:23:51.656Z,100387.66
2022-10-22T18:29:21.384Z,100396.91
2022-10-22T18:34:45.977Z,100405.47
2022-10-22T18:40:14.852Z,100398.03
2022-10-22T18:45:47.893Z,100398.34
2022-10-22T18:51:18.128Z,100393.72
2022-10-22T18:56:43.681Z,100408.75
2022-10-22T19:02:18.168Z,100409.91
2022-10-22T19:07:43.933Z,100415.19
2022-10-22T19:13:11.847Z,100414.63
2022-10-22T19:18:44.893Z,100418.19
2022-10-22T19:24:20.331Z,100420.13
2022-10-22T19:29:56.605Z,100427.03
2022-10-22T19:35:22.865Z,100428.00
2022-10-22T19:40:45.516Z,100436.84
2022-10-22T19:46:14.394Z,100435.81
2022-10-22T19:51:42.381Z,100444.66
2022-10-22T19:57:13.285Z,100457.81
2022-10-22T20:02:45.200Z,100475.19
2022-10-22T20:08:13.581Z,100470.69
2022-10-22T20:19:11.500Z,100479.00
2022-10-22T20:24:40.010Z,100483.34
2022-10-22T20:30:07.895Z,100487.72
2022-10-22T20:35:37.073Z,100501.63
2022-10-22T20:41:07.452Z,100496.00
2022-10-22T20:46:47.977Z,100507.13
2022-10-22T20:52:36.331Z,100512.31
2022-10-22T20:58:09.624Z,100518.31
2022-10-22T21:03:48.147Z,100512.81
2022-10-22T21:09:32.981Z,100521.44
2022-10-22T21:15:14.645Z,100509.19
2022-10-22T21:20:40.358Z,100512.41
2022-10-22T21:26:09.190Z,100516.47
2022-10-22T21:37:16.143Z,100511.53
2022-10-22T21:42:49.780Z,100506.84
2022-10-22T21:48:18.806Z,100502.19
2022-10-22T21:53:48.024Z,100505.25
2022-10-22T21:59:18.992Z,100507.59
2022-10-22T22:04:42.185Z,100506.06
2022-10-22T22:10:08.946Z,100510.25
2022-10-22T22:15:47.892Z,100512.03
2022-10-22T22:21:20.083Z,100523.00
2022-10-22T22:26:49.355Z,100518.94
2022-10-22T22:32:20.310Z,100515.63
2022-10-22T22:38:03.252Z,100510.53
2022-10-22T22:43:30.005Z,100527.53
2022-10-22T22:48:57.336Z,100522.75
2022-10-22T22:54:25.541Z,100521.50
2022-10-22T22:59:52.813Z,100522.59
2022-10-22T23:05:21.468Z,100524.72
2022-10-22T23:10:48.952Z,100527.47
2022-10-22T23:16:16.080Z,100531.88
2022-10-22T23:21:48.563Z,100524.44
2022-10-22T23:27:14.523Z,100515.16
2022-10-22T23:32:43.105Z,100521.69
2022-10-22T23:38:41.149Z,100516.59
2022-10-22T23:44:05.414Z,100510.78
2022-10-22T23:49:31.426Z,100502.91
2022-10-22T23:55:06.570Z,100511.59
